createdAt,value
2023-01-13T00:01:35.803Z,4.58
2023-01-13T00:11:38.906Z,4.65
2023-01-13T00:21:43.969Z,4.52
2023-01-13T00:31:47.145Z,4.75
2023-01-13T00:42:09.206Z,4.72
2023-01-13T00:52:12.958Z,4.43
2023-01-13T01:02:17.458Z,4.55
2023-01-13T01:12:20.725Z,4.79
2023-01-13T01:22:25.212Z,4.89
2023-01-13T01:32:28.332Z,5.12
2023-01-13T01:42:50.453Z,4.98
2023-01-13T01:52:56.791Z,5.10
2023-01-13T02:03:02.052Z,4.97
2023-01-13T02:13:07.168Z,5.07
2023-01-13T02:24:01.813Z,5.18
2023-01-13T02:34:09.566Z,5.34
2023-01-13T02:44:13.951Z,5.28
2023-01-13T02:54:20.670Z,5.31
2023-01-13T03:04:50.175Z,5.25
2023-01-13T03:14:57.849Z,5.04
2023-01-13T03:25:07.347Z,5.02
2023-01-13T03:35:16.233Z,5.03
2023-01-13T03:45:20.238Z,4.91
2023-01-13T03:55:29.572Z,4.97
2023-01-13T04:05:35.347Z,4.97
2023-01-13T04:15:41.147Z,5.10
2023-01-13T04:25:44.806Z,5.12
2023-01-13T04:35:49.600Z,5.00
2023-01-13T04:45:52.805Z,5.03
2023-01-13T04:55:57.384Z,4.98
2023-01-13T05:06:00.535Z,4.73
2023-01-13T05:16:19.321Z,5.26
2023-01-13T05:26:24.280Z,5.19
2023-01-13T05:36:28.788Z,5.31
2023-01-13T05:46:31.993Z,5.34
2023-01-13T05:56:36.518Z,5.38
2023-01-13T06:06:39.746Z,5.36
2023-01-13T06:16:45.477Z,5.48
2023-01-13T06:26:49.131Z,4.88
2023-01-13T06:36:55.162Z,5.38
2023-01-13T06:46:58.370Z,5.32
2023-01-13T06:57:03.013Z,5.57
2023-01-13T07:07:07.785Z,5.60
2023-01-13T07:17:12.252Z,5.79
2023-01-13T07:27:15.463Z,5.69
2023-01-13T07:37:23.940Z,5.81
2023-01-13T07:47:27.520Z,5.82
2023-01-13T07:57:32.036Z,6.20
2023-01-13T08:07:35.255Z,6.58
2023-01-13T08:17:41.061Z,6.67
2023-01-13T08:27:44.148Z,6.82
2023-01-13T08:37:49.057Z,6.86
2023-01-13T08:47:52.168Z,5.97
2023-01-13T08:58:14.084Z,6.21
2023-01-13T09:08:22.273Z,6.51
2023-01-13T09:18:27.564Z,6.49
2023-01-13T09:28:31.080Z,6.76
2023-01-13T09:38:39.298Z,7.07
2023-01-13T09:48:52.793Z,7.41
2023-01-13T09:58:57.353Z,7.83
2023-01-13T10:09:00.722Z,7.48
2023-01-13T10:19:15.344Z,7.31
2023-01-13T10:29:21.760Z,7.40
2023-01-13T10:39:26.536Z,7.78
2023-01-13T10:49:33.796Z,7.57
2023-01-13T10:59:38.687Z,7.38
2023-01-13T11:09:42.515Z,7.22
2023-01-13T11:19:51.926Z,6.98
2023-01-13T11:30:01.299Z,7.50
2023-01-13T11:40:13.533Z,7.50
2023-01-13T11:50:26.190Z,7.00
2023-01-13T12:00:38.940Z,7.12
2023-01-13T12:10:49.095Z,7.02
2023-01-13T12:21:03.855Z,6.82
2023-01-13T12:31:07.503Z,7.26
2023-01-13T12:41:17.645Z,7.45
2023-01-13T12:51:26.294Z,7.44
2023-01-13T13:01:37.533Z,7.66
2023-01-13T13:12:02.077Z,7.66
2023-01-13T13:22:46.065Z,8.02
2023-01-13T13:33:00.605Z,7.85
2023-01-13T13:43:24.074Z,7.87
2023-01-13T13:53:29.183Z,7.95
2023-01-13T14:03:37.777Z,7.57
2023-01-13T14:13:42.053Z,7.84
2023-01-13T14:23:51.709Z,7.94
2023-01-13T14:33:57.046Z,8.04
2023-01-13T14:44:03.302Z,8.14
2023-01-13T14:54:46.750Z,7.99
2023-01-13T15:04:54.099Z,8.09
2023-01-13T15:14:57.765Z,8.19
2023-01-13T15:25:02.190Z,8.21
2023-01-13T15:35:05.919Z,8.24
2023-01-13T15:45:31.488Z,8.38
2023-01-13T15:55:36.453Z,8.56
2023-01-13T16:05:40.878Z,8.38
2023-01-13T16:15:45.628Z,8.32
2023-01-13T16:25:51.032Z,8.36
2023-01-13T16:36:12.111Z,8.21
2023-01-13T16:46:22.980Z,8.50
2023-01-13T16:56:28.123Z,8.31
2023-01-13T17:06:34.219Z,8.39
2023-01-13T17:16:42.828Z,8.45
2023-01-13T17:26:49.383Z,8.52
2023-01-13T17:36:52.629Z,8.54
2023-01-13T17:46:57.194Z,8.49
2023-01-13T17:57:00.415Z,8.58
2023-01-13T18:07:05.803Z,8.53
2023-01-13T18:17:09.092Z,8.56
2023-01-13T18:27:23.677Z,8.46
2023-01-13T18:37:29.200Z,8.55
2023-01-13T18:47:39.180Z,8.53
2023-01-13T18:57:43.346Z,8.55
2023-01-13T19:07:50.962Z,8.55
2023-01-13T19:17:54.473Z,8.46
2023-01-13T19:27:59.787Z,8.50
2023-01-13T19:38:03.112Z,8.41
2023-01-13T19:48:09.564Z,8.46
2023-01-13T19:58:12.919Z,8.45
2023-01-13T20:08:17.832Z,8.60
2023-01-13T20:18:21.157Z,8.62
2023-01-13T20:28:26.968Z,8.50
2023-01-13T20:38:36.026Z,8.44
2023-01-13T20:48:40.971Z,8.44
2023-01-13T20:58:45.118Z,7.60
2023-01-13T21:08:49.832Z,7.85
2023-01-13T21:19:08.140Z,8.05
2023-01-13T21:29:12.644Z,8.12
2023-01-13T21:39:16.115Z,6.96
2023-01-13T21:49:20.704Z,7.85
2023-01-13T21:59:23.858Z,8.15
2023-01-13T22:09:28.679Z,8.19
2023-01-13T22:19:32.207Z,8.39
2023-01-13T22:29:37.817Z,8.23
2023-01-13T22:39:41.035Z,8.28
2023-01-13T22:49:47.779Z,7.91
2023-01-13T22:59:51.027Z,8.35
2023-01-13T23:09:55.464Z,7.88
2023-01-13T23:19:58.626Z,8.51
2023-01-13T23:30:03.149Z,8.36
2023-01-13T23:40:09.465Z,8.40
2023-01-13T23:50:15.030Z,8.11
